PWSweather.com
Personal Weather Stations
Station Observations
KVAGLENALL
West Henrico, Glen Allen, VA 23060-6503

West HenricoGlen Allen, VA 23060-6503

Lat: 37.6554, Lon: -77.5693

Elevation: 273

Station Type: Davis Vantage Pro II

Latest ConditionsUpdated 3:45:16 PM EDT Friday, Aug 18, 2017
Currently Today's Max Today's Min Today's Average
Temperature 93.7°F34.3°C 93.8°F34.3°C 74.9°F23.8°C 81.3°F27.4°C
Dew Point 77.2°F25.1°C 79.3°F26.3°C 72.7°F22.6°C 75.2°F24.0°C
Winds 3.0 mph SE4.8 kmh SE 7.1 mph SE11.4 kmh SE - 1.5 mph 2.4 kmh
Wind Gusts 9.1 mph14.6 kmh 11.2 mph18.0 kmh - -
Humidity 59% 93% 59% 83%
Pressure 29.80 in1009.1 mb 29.94 in1013.9 mb 29.80 in1009.1 mb -
Hour Temp Dew Point Humidity Winds Wind Gusts Pressure Precip Precip Rate Daily Precip Total
03:45 PM 93.7°F34.3°C 77.2°F25.1°C 59% 3.0 mph SE4.8 kmh SE 9.1 mph14.6 kmh 29.80 in1009.1 mb 0.00 in0.0 mm 0.00 in0.0 mm 0.00 in0.0 mm
03:30 PM 93.0°F33.9°C 78.0°F25.6°C 62% 0.1 mph SSE0.2 kmh SSE 10.1 mph16.3 kmh 29.80 in1009.1 mb 0.00 in0.0 mm 0.00 in0.0 mm 0.00 in0.0 mm
03:15 PM 93.3°F34.1°C 77.3°F25.2°C 60% 4.1 mph S6.6 kmh S 7.1 mph11.4 kmh 29.81 in1009.5 mb 0.00 in0.0 mm 0.00 in0.0 mm 0.00 in0.0 mm
03:00 PM 93.0°F33.9°C 77.5°F25.3°C 61% 7.1 mph SW11.4 kmh SW 7.1 mph11.4 kmh 29.81 in1009.5 mb 0.00 in0.0 mm 0.00 in0.0 mm 0.00 in0.0 mm
02:45 PM 93.8°F34.3°C 78.3°F25.7°C 61% 1.0 mph WSW1.6 kmh WSW 5.1 mph8.2 kmh 29.81 in1009.5 mb 0.00 in0.0 mm 0.00 in0.0 mm 0.00 in0.0 mm
02:30 PM 92.8°F33.8°C 78.3°F25.7°C 63% 4.1 mph WSW6.6 kmh WSW 4.1 mph6.6 kmh 29.82 in1009.8 mb 0.00 in0.0 mm 0.00 in0.0 mm 0.00 in0.0 mm
02:15 PM 92.8°F33.8°C 76.9°F24.9°C 60% 3.0 mph SE4.8 kmh SE 7.1 mph11.4 kmh 29.83 in1010.2 mb 0.00 in0.0 mm 0.00 in0.0 mm 0.00 in0.0 mm
02:00 PM 92.3°F33.5°C 77.4°F25.2°C 62% 4.1 mph SSE6.6 kmh SSE 11.2 mph18.0 kmh 29.83 in1010.2 mb 0.00 in0.0 mm 0.00 in0.0 mm 0.00 in0.0 mm
01:45 PM 92.5°F33.6°C 78.5°F25.8°C 64% 4.1 mph SE6.6 kmh SE 7.1 mph11.4 kmh 29.84 in1010.5 mb 0.00 in0.0 mm 0.00 in0.0 mm 0.00 in0.0 mm
01:30 PM 92.0°F33.3°C 77.6°F25.3°C 63% 2.0 mph SW3.2 kmh SW 8.1 mph13.0 kmh 29.85 in1010.8 mb 0.00 in0.0 mm 0.00 in0.0 mm 0.00 in0.0 mm
01:15 PM 91.4°F33.0°C 77.5°F25.3°C 64% 4.1 mph E6.6 kmh E 9.1 mph14.6 kmh 29.85 in1010.8 mb 0.00 in0.0 mm 0.00 in0.0 mm 0.00 in0.0 mm
01:00 PM 90.9°F32.7°C 78.4°F25.8°C 67% 7.1 mph SE11.4 kmh SE 8.1 mph13.0 kmh 29.85 in1010.8 mb 0.00 in0.0 mm 0.00 in0.0 mm 0.00 in0.0 mm
12:45 PM 90.3°F32.4°C 78.7°F25.9°C 69% 1.0 mph SE1.6 kmh SE 3.1 mph5.0 kmh 29.86 in1011.2 mb 0.00 in0.0 mm 0.00 in0.0 mm 0.00 in0.0 mm
12:30 PM 89.6°F32.0°C 79.3°F26.3°C 72% 0.1 mph SW0.2 kmh SW 2.1 mph3.4 kmh 29.87 in1011.5 mb 0.00 in0.0 mm 0.00 in0.0 mm 0.00 in0.0 mm
12:15 PM 89.3°F31.8°C 79.1°F26.2°C 72% 3.0 mph ESE4.8 kmh ESE 5.1 mph8.2 kmh 29.88 in1011.9 mb 0.00 in0.0 mm 0.00 in0.0 mm 0.00 in0.0 mm
12:00 PM 88.6°F31.4°C 79.3°F26.3°C 74% 5.1 mph SE8.2 kmh SE 8.1 mph13.0 kmh 29.89 in1012.2 mb 0.00 in0.0 mm 0.00 in0.0 mm 0.00 in0.0 mm
11:45 AM 87.7°F30.9°C 78.8°F26.0°C 75% 1.0 mph SW1.6 kmh SW 7.1 mph11.4 kmh 29.88 in1011.9 mb 0.00 in0.0 mm 0.00 in0.0 mm 0.00 in0.0 mm
11:30 AM 86.7°F30.4°C 77.9°F25.5°C 75% 0.1 mph S0.2 kmh S 3.1 mph5.0 kmh 29.89 in1012.2 mb 0.00 in0.0 mm 0.00 in0.0 mm 0.00 in0.0 mm
11:15 AM 85.9°F29.9°C 78.3°F25.7°C 78% 0.1 mph NNW0.2 kmh NNW 3.1 mph5.0 kmh 29.89 in1012.2 mb 0.00 in0.0 mm 0.00 in0.0 mm 0.00 in0.0 mm
11:00 AM 85.0°F29.4°C 77.8°F25.4°C 79% 0.1 mph SSE0.2 kmh SSE 5.1 mph8.2 kmh 29.89 in1012.2 mb 0.00 in0.0 mm 0.00 in0.0 mm 0.00 in0.0 mm
10:45 AM 83.8°F28.8°C 77.4°F25.2°C 81% 0.1 mph SW0.2 kmh SW 4.1 mph6.6 kmh 29.90 in1012.5 mb 0.00 in0.0 mm 0.00 in0.0 mm 0.00 in0.0 mm
10:30 AM 82.1°F27.8°C 76.4°F24.7°C 83% 3.0 mph SE4.8 kmh SE 5.1 mph8.2 kmh 29.90 in1012.5 mb 0.00 in0.0 mm 0.00 in0.0 mm 0.00 in0.0 mm
10:15 AM 81.4°F27.4°C 76.1°F24.5°C 84% 0.1 mph SSW0.2 kmh SSW 5.1 mph8.2 kmh 29.90 in1012.5 mb 0.00 in0.0 mm 0.00 in0.0 mm 0.00 in0.0 mm
10:00 AM 79.3°F26.3°C 75.1°F23.9°C 87% 0.1 mph SSE0.2 kmh SSE 6.1 mph9.8 kmh 29.91 in1012.9 mb 0.00 in0.0 mm 0.00 in0.0 mm 0.00 in0.0 mm
09:45 AM 78.7°F25.9°C 74.8°F23.8°C 88% 0.1 mph SE0.2 kmh SE 4.1 mph6.6 kmh 29.91 in1012.9 mb 0.00 in0.0 mm 0.00 in0.0 mm 0.00 in0.0 mm
09:30 AM 78.8°F26.0°C 74.6°F23.7°C 87% 2.0 mph WSW3.2 kmh WSW 5.1 mph8.2 kmh 29.91 in1012.9 mb 0.00 in0.0 mm 0.00 in0.0 mm 0.00 in0.0 mm
09:15 AM 78.7°F25.9°C 74.8°F23.8°C 88% 0.1 mph SW0.2 kmh SW 6.1 mph9.8 kmh 29.91 in1012.9 mb 0.00 in0.0 mm 0.00 in0.0 mm 0.00 in0.0 mm
09:00 AM 77.8°F25.4°C 74.3°F23.5°C 89% 4.1 mph SSW6.6 kmh SSW 5.1 mph8.2 kmh 29.91 in1012.9 mb 0.00 in0.0 mm 0.00 in0.0 mm 0.00 in0.0 mm
08:45 AM 77.5°F25.3°C 74.3°F23.5°C 90% 2.0 mph SW3.2 kmh SW 6.1 mph9.8 kmh 29.91 in1012.9 mb 0.00 in0.0 mm 0.00 in0.0 mm 0.00 in0.0 mm
08:30 AM 77.0°F25.0°C 74.2°F23.4°C 91% 7.1 mph SE11.4 kmh SE 7.1 mph11.4 kmh 29.91 in1012.9 mb 0.00 in0.0 mm 0.00 in0.0 mm 0.00 in0.0 mm
08:15 AM 76.5°F24.7°C 74.0°F23.3°C 92% 3.0 mph SSE4.8 kmh SSE 4.1 mph6.6 kmh 29.91 in1012.9 mb 0.00 in0.0 mm 0.00 in0.0 mm 0.00 in0.0 mm
08:00 AM 76.3°F24.6°C 73.8°F23.2°C 92% 0.1 mph SW0.2 kmh SW 4.1 mph6.6 kmh 29.91 in1012.9 mb 0.00 in0.0 mm 0.00 in0.0 mm 0.00 in0.0 mm
07:45 AM 76.0°F24.4°C 73.5°F23.1°C 92% 2.0 mph E3.2 kmh E 4.1 mph6.6 kmh 29.91 in1012.9 mb 0.00 in0.0 mm 0.00 in0.0 mm 0.00 in0.0 mm
07:30 AM 75.7°F24.3°C 73.5°F23.1°C 93% 0.1 mph SE0.2 kmh SE 2.1 mph3.4 kmh 29.91 in1012.9 mb 0.00 in0.0 mm 0.00 in0.0 mm 0.00 in0.0 mm
07:15 AM 75.5°F24.2°C 73.3°F22.9°C 93% 0.1 mph S0.2 kmh S 2.1 mph3.4 kmh 29.91 in1012.9 mb 0.00 in0.0 mm 0.00 in0.0 mm 0.00 in0.0 mm
07:00 AM 75.3°F24.1°C 73.1°F22.8°C 93% 0.1 mph SW0.2 kmh SW 2.1 mph3.4 kmh 29.91 in1012.9 mb 0.00 in0.0 mm 0.00 in0.0 mm 0.00 in0.0 mm
06:45 AM 75.1°F23.9°C 72.9°F22.7°C 93% 1.0 mph SSE1.6 kmh SSE 2.1 mph3.4 kmh 29.90 in1012.5 mb 0.00 in0.0 mm 0.00 in0.0 mm 0.00 in0.0 mm
06:30 AM 75.1°F23.9°C 72.9°F22.7°C 93% 1.0 mph S1.6 kmh S 7.1 mph11.4 kmh 29.89 in1012.2 mb 0.00 in0.0 mm 0.00 in0.0 mm 0.00 in0.0 mm
06:15 AM 74.9°F23.8°C 72.7°F22.6°C 93% 3.0 mph S4.8 kmh S 7.1 mph11.4 kmh 29.88 in1011.9 mb 0.00 in0.0 mm 0.00 in0.0 mm 0.00 in0.0 mm
06:00 AM 74.9°F23.8°C 72.7°F22.6°C 93% 0.1 mph S0.2 kmh S 2.1 mph3.4 kmh 29.88 in1011.9 mb 0.00 in0.0 mm 0.00 in0.0 mm 0.00 in0.0 mm
05:45 AM 75.0°F23.9°C 72.8°F22.7°C 93% 1.0 mph SSE1.6 kmh SSE 5.1 mph8.2 kmh 29.88 in1011.9 mb 0.00 in0.0 mm 0.00 in0.0 mm 0.00 in0.0 mm
05:30 AM 75.2°F24.0°C 73.0°F22.8°C 93% 0.1 mph SE0.2 kmh SE 2.1 mph3.4 kmh 29.88 in1011.9 mb 0.00 in0.0 mm 0.00 in0.0 mm 0.00 in0.0 mm
05:15 AM 75.3°F24.1°C 72.8°F22.7°C 92% 0.1 mph S0.2 kmh S 0.1 mph0.2 kmh 29.88 in1011.9 mb 0.00 in0.0 mm 0.00 in0.0 mm 0.00 in0.0 mm
05:00 AM 75.6°F24.2°C 73.1°F22.8°C 92% 2.0 mph SE3.2 kmh SE 2.1 mph3.4 kmh 29.88 in1011.9 mb 0.00 in0.0 mm 0.00 in0.0 mm 0.00 in0.0 mm
04:45 AM 75.6°F24.2°C 73.1°F22.8°C 92% 0.1 mph SSE0.2 kmh SSE 0.1 mph0.2 kmh 29.88 in1011.9 mb 0.00 in0.0 mm 0.00 in0.0 mm 0.00 in0.0 mm
04:30 AM 75.8°F24.3°C 73.3°F22.9°C 92% 0.1 mph WSW0.2 kmh WSW 1.1 mph1.8 kmh 29.88 in1011.9 mb 0.00 in0.0 mm 0.00 in0.0 mm 0.00 in0.0 mm
04:15 AM 75.9°F24.4°C 73.1°F22.8°C 91% 0.1 mph SW0.2 kmh SW 1.1 mph1.8 kmh 29.88 in1011.9 mb 0.00 in0.0 mm 0.00 in0.0 mm 0.00 in0.0 mm
04:00 AM 76.2°F24.6°C 73.0°F22.8°C 90% 0.1 mph SSW0.2 kmh SSW 1.1 mph1.8 kmh 29.88 in1011.9 mb 0.00 in0.0 mm 0.00 in0.0 mm 0.00 in0.0 mm
03:45 AM 76.3°F24.6°C 73.1°F22.8°C 90% 0.1 mph S0.2 kmh S 0.1 mph0.2 kmh 29.89 in1012.2 mb 0.00 in0.0 mm 0.00 in0.0 mm 0.00 in0.0 mm
03:30 AM 76.5°F24.7°C 73.3°F22.9°C 90% 0.1 mph SE0.2 kmh SE 2.1 mph3.4 kmh 29.90 in1012.5 mb 0.00 in0.0 mm 0.00 in0.0 mm 0.00 in0.0 mm
03:15 AM 76.7°F24.8°C 73.5°F23.1°C 90% 0.1 mph SSW0.2 kmh SSW 2.1 mph3.4 kmh 29.90 in1012.5 mb 0.00 in0.0 mm 0.00 in0.0 mm 0.00 in0.0 mm
03:00 AM 76.7°F24.8°C 73.5°F23.1°C 90% 0.1 mph SSE0.2 kmh SSE 1.1 mph1.8 kmh 29.90 in1012.5 mb 0.00 in0.0 mm 0.00 in0.0 mm 0.00 in0.0 mm
02:45 AM 76.9°F24.9°C 73.7°F23.2°C 90% 1.0 mph SSE1.6 kmh SSE 2.1 mph3.4 kmh 29.90 in1012.5 mb 0.00 in0.0 mm 0.00 in0.0 mm 0.00 in0.0 mm
02:30 AM 76.9°F24.9°C 73.4°F23.0°C 89% 1.0 mph S1.6 kmh S 1.1 mph1.8 kmh 29.90 in1012.5 mb 0.00 in0.0 mm 0.00 in0.0 mm 0.00 in0.0 mm
02:15 AM 77.0°F25.0°C 73.5°F23.1°C 89% 0.1 mph SW0.2 kmh SW 2.1 mph3.4 kmh 29.91 in1012.9 mb 0.00 in0.0 mm 0.00 in0.0 mm 0.00 in0.0 mm
02:00 AM 77.1°F25.1°C 73.9°F23.3°C 90% 0.1 mph SSW0.2 kmh SSW 3.1 mph5.0 kmh 29.91 in1012.9 mb 0.00 in0.0 mm 0.00 in0.0 mm 0.00 in0.0 mm
01:45 AM 77.2°F25.1°C 74.0°F23.3°C 90% 0.1 mph SSE0.2 kmh SSE 2.1 mph3.4 kmh 29.91 in1012.9 mb 0.00 in0.0 mm 0.00 in0.0 mm 0.00 in0.0 mm
01:30 AM 77.3°F25.2°C 74.1°F23.4°C 90% 3.0 mph SE4.8 kmh SE 3.1 mph5.0 kmh 29.91 in1012.9 mb 0.00 in0.0 mm 0.00 in0.0 mm 0.00 in0.0 mm
01:15 AM 77.5°F25.3°C 74.3°F23.5°C 90% 0.1 mph SSE0.2 kmh SSE 1.1 mph1.8 kmh 29.91 in1012.9 mb 0.00 in0.0 mm 0.00 in0.0 mm 0.00 in0.0 mm
01:00 AM 77.7°F25.4°C 74.5°F23.6°C 90% 0.1 mph S0.2 kmh S 2.1 mph3.4 kmh 29.92 in1013.2 mb 0.00 in0.0 mm 0.00 in0.0 mm 0.00 in0.0 mm
12:45 AM 78.0°F25.6°C 74.5°F23.6°C 89% 0.1 mph S0.2 kmh S 0.1 mph0.2 kmh 29.92 in1013.2 mb 0.00 in0.0 mm 0.00 in0.0 mm 0.00 in0.0 mm
12:30 AM 78.2°F25.7°C 74.7°F23.7°C 89% 0.1 mph WSW0.2 kmh WSW 0.1 mph0.2 kmh 29.93 in1013.5 mb 0.00 in0.0 mm 0.00 in0.0 mm 0.00 in0.0 mm
12:15 AM 78.5°F25.8°C 75.0°F23.9°C 89% 0.1 mph SSE0.2 kmh SSE 2.1 mph3.4 kmh 29.93 in1013.5 mb 0.00 in0.0 mm 0.00 in0.0 mm 0.00 in0.0 mm
12:00 AM 78.7°F25.9°C 74.8°F23.8°C 88% 2.0 mph SE3.2 kmh SE 2.1 mph3.4 kmh 29.94 in1013.9 mb 0.00 in0.0 mm 0.00 in0.0 mm 0.00 in0.0 mm